Time;durP1;ratioP1;P1;durP2;ratioP2;P2;SDS_P1;SDS_P2;PMS_P1;PMS_P2;Temp;Humidity;BMP_temperature;BMP_pressure;BME280_temperature;BME280_humidity;BME280_pressure;Samples;Min_cycle;Max_cycle;Signal;HPM_P1;HPM_P2
2023/10/06 00:01:33;;;;;;;13.20;4.15;;;;;;;13.45;100.00;102244.44;5059565;28;20037;-75
2023/10/06 00:04:06;;;;;;;9.30;3.80;;;;;;;13.45;100.00;102257.69;5002162;28;20052;-75
2023/10/06 00:06:37;;;;;;;10.70;4.32;;;;;;;13.45;100.00;102239.16;5040953;28;20804;-76
2023/10/06 00:09:06;;;;;;;;;;;;;;;13.42;100.00;102242.66;5051917;28;20056;-74
2023/10/06 00:11:34;;;;;;;9.50;3.55;;;;;;;13.43;100.00;102248.84;5065229;28;19928;-76
2023/10/06 00:14:04;;;;;;;9.43;4.25;;;;;;;13.42;100.00;102240.00;5068275;28;20048;-75
2023/10/06 00:16:38;;;;;;;10.82;3.47;;;;;;;13.41;100.00;102224.09;5065131;28;20055;-75
2023/10/06 00:19:21;;;;;;;12.35;4.55;;;;;;;13.41;100.00;102229.38;5007917;28;20047;-75
2023/10/06 00:22:03;;;;;;;7.00;3.55;;;;;;;13.39;100.00;102226.72;5051684;28;20037;-75
2023/10/06 00:24:31;;;;;;;11.65;3.53;;;;;;;13.37;100.00;102228.47;5053902;28;20044;-75
2023/10/06 00:26:59;;;;;;;13.20;3.47;;;;;;;13.38;100.00;102234.63;5048072;28;20389;-75
2023/10/06 00:29:29;;;;;;;9.43;3.38;;;;;;;13.38;100.00;102237.28;5047584;28;20040;-75
2023/10/06 00:32:21;;;;;;;8.73;3.43;;;;;;;13.39;100.00;102241.72;5034717;28;20048;-76
2023/10/06 00:34:55;;;;;;;8.23;2.97;;;;;;;13.40;100.00;102238.19;4985522;28;20310;-76
2023/10/06 00:37:23;;;;;;;9.35;3.58;;;;;;;13.41;100.00;102229.38;5051845;28;20060;-77
2023/10/06 00:39:56;;;;;;;12.82;3.90;;;;;;;13.42;100.00;102228.50;5050215;28;20048;-77
2023/10/06 00:42:26;;;;;;;8.48;3.50;;;;;;;13.42;100.00;102226.78;5063477;28;20033;-77
2023/10/06 00:44:54;;;;;;;10.60;4.03;;;;;;;13.43;100.00;102227.66;5066056;28;20040;-77
2023/10/06 00:47:21;;;;;;;6.20;3.47;;;;;;;13.43;100.00;102217.06;5061997;28;20051;-76
2023/10/06 00:49:55;;;;;;;11.35;3.83;;;;;;;13.44;100.00;102213.56;4999319;28;20045;-76
2023/10/06 00:52:24;;;;;;;8.48;3.33;;;;;;;13.42;100.00;102216.19;5024937;28;20056;-76
2023/10/06 00:54:52;;;;;;;10.07;3.70;;;;;;;13.43;100.00;102215.28;5054715;28;20516;-77
2023/10/06 00:57:20;;;;;;;8.73;3.50;;;;;;;13.42;100.00;102220.56;5063549;28;20375;-76
2023/10/06 00:59:47;;;;;;;14.90;3.47;;;;;;;13.41;100.00;102214.38;5079790;28;20043;-77
2023/10/06 01:02:15;;;;;;;8.32;4.25;;;;;;;13.42;100.00;102199.38;5067138;28;20037;-76
2023/10/06 01:04:52;;;;;;;8.90;3.90;;;;;;;13.42;100.00;102202.94;4992552;28;20056;-77
2023/10/06 01:07:24;;;;;;;14.00;4.03;;;;;;;13.43;100.00;102196.75;5055106;28;20040;-75
2023/10/06 01:10:07;;;;;;;11.63;4.13;;;;;;;13.43;100.00;102206.47;5063181;28;20552;-76
2023/10/06 01:12:35;;;;;;;13.73;3.75;;;;;;;13.45;100.00;102200.31;5062684;28;20481;-76
2023/10/06 01:15:09;;;;;;;9.95;3.72;;;;;;;13.44;100.00;102190.59;5064547;28;20056;-74
2023/10/06 01:17:36;;;;;;;8.35;3.85;;;;;;;13.45;100.00;102181.78;5051976;28;20040;-77
2023/10/06 01:20:04;;;;;;;10.88;3.80;;;;;;;13.47;100.00;102173.84;5058591;28;20037;-75
2023/10/06 01:22:41;;;;;;;10.77;3.92;;;;;;;13.48;100.00;102172.09;4987964;28;20048;-76
2023/10/06 01:25:22;;;;;;;9.85;4.00;;;;;;;13.49;100.00;102160.63;5046682;28;20049;-77
2023/10/06 01:27:50;;;;;;;14.02;4.28;;;;;;;13.49;100.00;102150.94;5059441;28;20040;-76
2023/10/06 01:30:18;;;;;;;11.95;3.53;;;;;;;13.50;100.00;102152.72;5060045;28;20053;-77
2023/10/06 01:32:49;;;;;;;12.90;4.30;;;;;;;13.51;100.00;102159.78;5062563;28;20032;-77
2023/10/06 01:35:23;;;;;;;8.40;3.75;;;;;;;13.51;100.00;102164.19;5057195;28;20045;-75
2023/10/06 01:38:00;;;;;;;12.73;4.25;;;;;;;13.50;100.00;102142.13;5014029;28;20560;-76
2023/10/06 01:42:56;;;;;;;11.02;3.75;;;;;;;13.50;100.00;102152.72;5058329;28;20052;-74
2023/10/06 01:45:24;;;;;;;9.93;4.55;;;;;;;13.51;100.00;102148.31;5062568;28;20450;-75
2023/10/06 01:50:48;;;;;;;12.82;4.38;;;;;;;13.50;100.00;102151.84;5035945;28;20049;-75
2023/10/06 01:53:20;;;;;;;13.68;4.68;;;;;;;13.49;100.00;102140.34;5019773;28;20040;-75
2023/10/06 01:55:49;;;;;;;;;;;;;;;13.45;100.00;102134.13;5050785;28;20040;-75
2023/10/06 01:58:19;;;;;;;9.18;4.47;;;;;;;13.45;100.00;102136.75;5058079;28;19928;-75
2023/10/06 02:00:48;;;;;;;14.80;4.40;;;;;;;13.45;100.00;102136.75;5027568;28;20724;-75
2023/10/06 02:03:17;;;;;;;11.68;4.90;;;;;;;13.43;100.00;102143.81;5063500;28;20532;-75
2023/10/06 02:05:47;;;;;;;9.70;4.80;;;;;;;13.42;100.00;102125.25;5055561;28;20048;-74
2023/10/06 02:08:21;;;;;;;17.52;5.40;;;;;;;13.42;100.00;102126.16;5020006;28;20059;-75
2023/10/06 02:10:50;;;;;;;14.65;4.70;;;;;;;13.43;100.00;102125.25;5032114;28;20056;-75
2023/10/06 02:13:21;;;;;;;10.40;4.40;;;;;;;13.42;100.00;102114.66;5061815;28;20037;-74
2023/10/06 02:15:59;;;;;;;13.23;5.88;;;;;;;13.42;100.00;102126.16;5057612;28;20533;-74
2023/10/06 02:18:36;;;;;;;19.35;5.43;;;;;;;13.41;100.00;102127.00;5063790;28;20056;-75
2023/10/06 02:21:09;;;;;;;12.35;5.18;;;;;;;13.43;100.00;102127.03;5041167;28;20052;-75
2023/10/06 02:23:37;;;;;;;15.77;6.30;;;;;;;13.43;100.00;102129.69;4999513;28;20045;-75
2023/10/06 02:26:07;;;;;;;18.45;6.82;;;;;;;13.43;100.00;102124.38;5052057;28;20544;-75
2023/10/06 02:28:34;;;;;;;12.65;6.07;;;;;;;13.43;100.00;102127.91;5039446;28;20060;-74
2023/10/06 02:31:05;;;;;;;12.82;5.85;;;;;;;13.44;100.00;102134.13;5041719;28;20049;-75
2023/10/06 02:33:36;;;;;;;10.68;6.50;;;;;;;13.46;100.00;102132.38;5075401;28;20410;-75
2023/10/06 02:36:15;;;;;;;;;;;;;;;13.46;100.00;102121.78;5055410;28;20790;-75
2023/10/06 02:38:46;;;;;;;12.35;6.30;;;;;;;13.46;100.00;102108.53;5023114;28;19920;-74
2023/10/06 02:41:23;;;;;;;12.30;6.00;;;;;;;13.45;100.00;102106.75;5040095;28;20044;-75
2023/10/06 02:43:54;;;;;;;13.60;7.10;;;;;;;13.45;100.00;102101.47;5043141;28;20052;-75
2023/10/06 02:46:23;;;;;;;17.70;6.88;;;;;;;13.45;100.00;102094.41;5056768;28;20052;-75
2023/10/06 02:48:51;;;;;;;11.85;7.05;;;;;;;13.45;100.00;102098.81;5045101;28;20048;-75
2023/10/06 02:51:29;;;;;;;19.60;7.50;;;;;;;13.44;100.00;102097.06;5064236;28;20047;-74
2023/10/06 02:54:47;;;;;;;18.25;7.68;;;;;;;13.41;100.00;102095.25;5051265;28;20063;-74
2023/10/06 02:56:47;;;;;;;13.43;6.85;;;;;;;13.41;100.00;102081.13;4987050;28;20056;-75
2023/10/06 02:59:24;;;;;;;13.23;7.28;;;;;;;13.40;100.00;102074.03;5039686;28;20052;-74
2023/10/06 03:02:06;;;;;;;13.55;6.68;;;;;;;13.38;100.00;102075.78;5058244;28;20067;-75
2023/10/06 03:04:36;;;;;;;13.70;7.30;;;;;;;13.38;100.00;102075.78;5030760;28;20056;-74
2023/10/06 03:07:11;;;;;;;14.55;6.85;;;;;;;13.38;100.00;102086.38;5055799;28;20040;-75
2023/10/06 03:09:43;;;;;;;17.15;7.95;;;;;;;13.37;100.00;102074.91;5018786;28;20057;-75
2023/10/06 03:14:42;;;;;;;13.93;7.03;;;;;;;13.37;100.00;102072.25;5060096;28;20493;-76
2023/10/06 03:17:12;;;;;;;11.67;6.47;;;;;;;13.38;100.00;102075.78;5056269;28;20052;-77
2023/10/06 03:19:44;;;;;;;20.45;7.68;;;;;;;13.37;100.00;102064.31;5060314;28;20052;-76
2023/10/06 03:22:13;;;;;;;13.70;7.00;;;;;;;13.39;100.00;102054.63;5047143;28;20044;-76
2023/10/06 03:24:45;;;;;;;20.38;7.25;;;;;;;13.41;100.00;102058.16;5006731;28;20060;-76
2023/10/06 03:27:14;;;;;;;16.33;6.90;;;;;;;13.41;100.00;102055.53;5046621;28;20041;-76
2023/10/06 03:32:27;;;;;;;12.43;6.60;;;;;;;13.42;100.00;102061.69;5060036;28;20044;-77
2023/10/06 03:34:57;;;;;;;22.33;7.03;;;;;;;13.42;100.00;102051.09;5036184;28;20047;-76
2023/10/06 03:37:37;;;;;;;13.98;7.07;;;;;;;13.43;100.00;102058.19;5049090;28;20422;-76
2023/10/06 03:40:11;;;;;;;11.80;6.88;;;;;;;13.44;100.00;102047.63;5009479;28;20060;-76
2023/10/06 03:42:39;;;;;;;14.15;7.10;;;;;;;13.44;100.00;102047.63;5032054;28;20049;-76
2023/10/06 03:45:20;;;;;;;16.83;6.85;;;;;;;13.46;100.00;102045.00;5056417;28;20052;-76
2023/10/06 03:47:48;;;;;;;16.45;7.25;;;;;;;13.44;100.00;102047.63;5068029;28;20437;-76
2023/10/06 03:50:19;;;;;;;16.52;7.50;;;;;;;13.45;100.00;102040.56;5016000;28;20055;-76
2023/10/06 03:52:47;;;;;;;15.02;6.70;;;;;;;13.45;100.00;102048.50;5067570;28;20494;-76
2023/10/06 03:55:14;;;;;;;18.23;7.15;;;;;;;13.45;100.00;102048.50;5044435;28;20561;-76
2023/10/06 03:57:42;;;;;;;19.20;7.80;;;;;;;13.45;100.00;102051.16;5018127;28;20655;-75
2023/10/06 04:00:16;;;;;;;20.55;8.65;;;;;;;13.45;100.00;102040.56;5030446;28;20498;-76
2023/10/06 04:02:48;;;;;;;18.77;7.63;;;;;;;13.45;100.00;102040.56;5017244;28;20052;-75
2023/10/06 04:05:16;;;;;;;20.35;9.35;;;;;;;13.45;100.00;102041.44;5049822;28;20076;-76
2023/10/06 04:07:45;;;;;;;15.13;7.75;;;;;;;13.46;100.00;102050.28;5036940;28;20048;-76
2023/10/06 04:10:15;;;;;;;24.52;8.55;;;;;;;13.48;100.00;102029.09;5056860;28;20041;-75
2023/10/06 04:12:43;;;;;;;12.55;7.45;;;;;;;13.48;100.00;102037.03;5012644;28;20040;-76
2023/10/06 04:15:14;;;;;;;16.30;7.60;;;;;;;13.47;100.00;102038.81;5062624;28;20067;-76
2023/10/06 04:17:41;;;;;;;18.42;8.93;;;;;;;13.49;100.00;102033.53;5049038;28;20048;-75
2023/10/06 04:20:12;;;;;;;19.23;8.90;;;;;;;13.49;100.00;102034.41;5060344;28;20037;-76
2023/10/06 04:22:40;;;;;;;20.33;7.80;;;;;;;13.49;100.00;102026.47;5033880;28;20052;-76
2023/10/06 04:25:10;;;;;;;17.65;8.52;;;;;;;13.50;100.00;102025.63;5061558;28;20504;-76
2023/10/06 04:27:37;;;;;;;17.67;8.13;;;;;;;13.50;100.00;102012.38;5019865;28;20044;-76
2023/10/06 04:30:11;;;;;;;15.77;7.95;;;;;;;13.51;100.00;102010.59;5062767;28;20036;-76
2023/10/06 04:32:39;;;;;;;20.83;9.23;;;;;;;13.52;100.00;101999.16;5040098;28;20041;-75
2023/10/06 04:35:19;;;;;;;19.08;8.27;;;;;;;13.52;100.00;101996.50;5054561;28;20051;-75
2023/10/06 04:37:49;;;;;;;19.75;9.60;;;;;;;13.52;100.00;101996.50;5047177;28;20052;-76
2023/10/06 04:40:20;;;;;;;21.35;9.02;;;;;;;13.51;100.00;102002.66;5057392;28;20053;-76
2023/10/06 04:42:47;;;;;;;;;;;;;;;13.49;100.00;101996.47;5011487;28;20053;-76
2023/10/06 04:45:14;;;;;;;19.27;9.93;;;;;;;13.47;100.00;102001.75;5044523;28;19947;-75
2023/10/06 04:47:42;;;;;;;17.80;9.75;;;;;;;13.47;100.00;101992.91;5055851;28;20059;-75
2023/10/06 04:50:11;;;;;;;18.92;9.57;;;;;;;13.46;100.00;101994.69;5055899;28;20060;-76
2023/10/06 04:52:39;;;;;;;19.92;9.07;;;;;;;13.45;100.00;101984.94;5042116;28;20505;-75
2023/10/06 04:55:11;;;;;;;20.55;9.32;;;;;;;13.44;100.00;101984.06;5051507;28;20065;-75
2023/10/06 04:57:42;;;;;;;18.88;8.60;;;;;;;13.44;100.00;101983.19;5014643;28;20047;-75
2023/10/06 05:00:22;;;;;;;22.23;9.70;;;;;;;13.44;100.00;101988.50;5058939;28;20041;-76
2023/10/06 05:02:50;;;;;;;17.45;9.43;;;;;;;13.44;100.00;101988.50;5031148;28;20516;-76
2023/10/06 05:05:20;;;;;;;19.55;8.73;;;;;;;13.43;100.00;101976.09;5060886;28;20059;-77
2023/10/06 05:07:51;;;;;;;14.20;8.15;;;;;;;13.43;100.00;101984.06;5051279;28;20055;-76
2023/10/06 05:10:21;;;;;;;13.38;7.25;;;;;;;13.42;100.00;101983.19;5020090;28;20056;-76
2023/10/06 05:12:48;;;;;;;12.87;7.07;;;;;;;13.42;100.00;101983.19;5060147;28;20410;-76
2023/10/06 05:15:30;;;;;;;14.05;7.10;;;;;;;13.41;100.00;101972.56;5002065;28;20041;-76
2023/10/06 05:17:58;;;;;;;11.68;6.97;;;;;;;13.41;100.00;101964.63;5057138;28;20044;-76
2023/10/06 05:20:30;;;;;;;23.77;7.47;;;;;;;13.42;100.00;101979.63;5054227;28;20040;-76
2023/10/06 05:23:07;;;;;;;16.58;7.53;;;;;;;13.42;100.00;101961.09;5021711;28;20048;-76
2023/10/06 05:25:36;;;;;;;17.00;7.40;;;;;;;13.42;100.00;101966.38;5059094;28;20498;-76
2023/10/06 05:28:04;;;;;;;13.18;6.68;;;;;;;13.40;100.00;101953.16;5047532;28;20494;-76
2023/10/06 05:30:31;;;;;;;19.25;6.47;;;;;;;13.39;100.00;101940.78;5017785;28;20071;-76
2023/10/06 05:33:00;;;;;;;23.95;7.18;;;;;;;13.38;100.00;101954.00;5052980;28;20398;-76
2023/10/06 05:35:29;;;;;;;17.85;6.78;;;;;;;13.38;100.00;101952.25;5043886;28;20059;-76
2023/10/06 05:37:58;;;;;;;16.90;6.55;;;;;;;13.40;100.00;101960.19;5028680;28;20482;-76
2023/10/06 05:40:29;;;;;;;15.27;6.38;;;;;;;13.40;100.00;101961.09;5059190;28;20494;-76
2023/10/06 05:42:57;;;;;;;13.82;7.03;;;;;;;13.41;100.00;101964.63;5049951;28;20041;-76
2023/10/06 05:45:24;;;;;;;15.07;6.78;;;;;;;13.42;100.00;101966.38;4998053;28;20044;-76
2023/10/06 05:47:54;;;;;;;14.10;6.57;;;;;;;13.41;100.00;101981.38;5042907;28;20075;-76
2023/10/06 05:50:28;;;;;;;14.98;5.90;;;;;;;13.40;100.00;101976.06;5037859;28;20052;-76
2023/10/06 05:53:02;;;;;;;10.88;6.15;;;;;;;13.40;100.00;101981.38;5043381;28;20051;-76
2023/10/06 05:55:33;;;;;;;11.90;6.28;;;;;;;13.42;100.00;101979.63;5044339;28;20056;-76
2023/10/06 05:58:09;;;;;;;17.35;6.70;;;;;;;13.41;100.00;101976.09;5048030;28;20052;-76
2023/10/06 06:00:43;;;;;;;14.60;5.90;;;;;;;13.42;100.00;101982.25;5014219;28;20551;-76
2023/10/06 06:03:11;;;;;;;15.18;6.72;;;;;;;13.43;100.00;101986.69;5056041;28;20409;-76
2023/10/06 06:05:38;;;;;;;9.45;5.65;;;;;;;13.44;100.00;101985.84;5045343;28;20469;-76
2023/10/06 06:08:08;;;;;;;14.88;6.65;;;;;;;13.43;100.00;101984.06;5032620;28;20494;-76
2023/10/06 06:10:37;;;;;;;13.10;6.07;;;;;;;13.44;100.00;101975.25;5034197;28;20486;-76
2023/10/06 06:13:04;;;;;;;18.15;5.72;;;;;;;13.45;100.00;101977.00;5020864;28;20043;-77
2023/10/06 06:15:32;;;;;;;18.65;5.90;;;;;;;13.45;100.00;101972.59;5063312;28;20520;-76
2023/10/06 06:18:00;;;;;;;13.52;6.50;;;;;;;13.45;100.00;101982.31;5016095;28;20516;-76
2023/10/06 06:20:29;;;;;;;18.10;6.43;;;;;;;13.45;100.00;101982.31;5058882;28;20055;-76
2023/10/06 06:23:00;;;;;;;12.13;6.20;;;;;;;13.46;100.00;101965.56;5048060;28;20434;-76
2023/10/06 06:25:28;;;;;;;19.77;6.65;;;;;;;13.47;100.00;101980.56;5018309;28;20057;-76
2023/10/06 06:27:59;;;;;;;14.55;5.70;;;;;;;13.50;100.00;101979.72;5040619;28;20040;-76
2023/10/06 06:30:26;;;;;;;20.27;7.43;;;;;;;13.50;100.00;101964.72;5050504;28;20393;-76
2023/10/06 06:32:54;;;;;;;16.65;6.80;;;;;;;13.53;100.00;101964.72;4993231;28;20048;-76
2023/10/06 06:35:23;;;;;;;15.32;6.55;;;;;;;13.53;100.00;101964.72;5058121;28;20043;-76
2023/10/06 06:37:59;;;;;;;15.68;6.07;;;;;;;13.55;100.00;101964.72;5030380;28;20407;-76
2023/10/06 06:40:31;;;;;;;10.68;6.07;;;;;;;13.55;100.00;101960.31;5048772;28;20053;-76
2023/10/06 06:42:59;;;;;;;15.60;6.78;;;;;;;13.57;100.00;101949.75;5047692;28;20052;-76
2023/10/06 06:45:31;;;;;;;14.45;6.45;;;;;;;13.60;100.00;101955.06;5055276;28;20557;-76
2023/10/06 06:48:02;;;;;;;14.60;7.03;;;;;;;13.61;100.00;101956.84;5011530;28;20049;-76
2023/10/06 06:50:30;;;;;;;21.90;6.47;;;;;;;13.63;100.00;101958.63;5042174;28;20049;-75
2023/10/06 06:52:58;;;;;;;14.45;7.70;;;;;;;13.65;100.00;101953.38;5042305;28;20058;-76
2023/10/06 06:55:25;;;;;;;19.13;6.40;;;;;;;13.67;100.00;101954.25;5042916;28;20051;-76
2023/10/06 06:57:53;;;;;;;16.08;7.25;;;;;;;13.71;100.00;101964.00;5026365;28;20056;-76
2023/10/06 07:00:24;;;;;;;14.30;6.20;;;;;;;13.73;100.00;101966.66;5059372;28;20071;-76
2023/10/06 07:02:52;;;;;;;17.60;7.80;;;;;;;13.75;100.00;101960.50;5025532;28;20410;-76
2023/10/06 07:05:22;;;;;;;12.10;6.22;;;;;;;13.76;100.00;101951.69;5017835;28;20402;-76
2023/10/06 07:07:51;;;;;;;15.18;7.18;;;;;;;13.80;100.00;101971.16;5042670;28;20044;-76
2023/10/06 07:10:20;;;;;;;17.67;6.50;;;;;;;13.82;100.00;101967.63;5047876;28;20052;-79
2023/10/06 07:12:49;;;;;;;14.80;6.20;;;;;;;13.84;100.00;101967.63;5041254;28;20071;-77
2023/10/06 07:15:18;;;;;;;9.00;6.03;;;;;;;13.88;100.00;101960.59;5008948;28;20052;-76
2023/10/06 07:17:51;;;;;;;10.40;6.00;;;;;;;13.89;100.00;101957.06;5063555;28;20067;-77
2023/10/06 07:20:24;;;;;;;11.55;6.53;;;;;;;13.92;100.00;101950.03;5016659;28;20422;-76
2023/10/06 07:22:55;;;;;;;16.30;6.63;;;;;;;13.94;100.00;101948.25;5025959;28;20056;-76
2023/10/06 07:25:26;;;;;;;15.50;6.47;;;;;;;13.97;100.00;101961.53;5060299;28;20052;-76
2023/10/06 07:27:55;;;;;;;11.18;6.25;;;;;;;14.00;100.00;101958.91;5050879;28;20052;-76
2023/10/06 07:30:34;;;;;;;20.75;7.75;;;;;;;14.05;100.00;101953.66;5055188;28;20049;-76
2023/10/06 07:33:09;;;;;;;10.13;5.57;;;;;;;14.08;100.00;101964.25;5048557;28;20051;-76
2023/10/06 07:35:51;;;;;;;11.95;5.72;;;;;;;14.11;100.00;101964.28;5032213;28;20067;-76
2023/10/06 07:38:18;;;;;;;14.98;5.97;;;;;;;14.13;100.00;101965.16;5044835;28;20049;-76
2023/10/06 07:40:46;;;;;;;11.38;5.95;;;;;;;14.14;100.00;101964.31;5029036;28;20062;-76
2023/10/06 07:43:15;;;;;;;15.35;6.63;;;;;;;14.16;100.00;101961.69;5060843;28;20040;-76
2023/10/06 07:45:43;;;;;;;10.48;6.07;;;;;;;14.16;100.00;101964.31;5032408;28;20045;-76
2023/10/06 07:48:11;;;;;;;17.48;6.07;;;;;;;14.17;100.00;101980.22;5064390;28;20056;-76
2023/10/06 07:50:38;;;;;;;18.10;6.53;;;;;;;14.17;100.00;101974.03;4994402;28;20056;-77
2023/10/06 07:53:06;;;;;;;12.75;6.50;;;;;;;14.16;100.00;101965.19;5023815;28;20079;-76
2023/10/06 07:55:33;;;;;;;13.90;6.72;;;;;;;14.14;100.00;101964.31;5056733;28;20045;-76
2023/10/06 07:58:03;;;;;;;14.88;7.35;;;;;;;14.12;100.00;101973.09;5032292;28;20071;-76
2023/10/06 08:00:32;;;;;;;15.20;7.43;;;;;;;14.11;100.00;101969.59;5031566;28;20051;-77
2023/10/06 08:03:00;;;;;;;12.80;6.65;;;;;;;14.10;100.00;101966.91;5069645;28;20398;-76
2023/10/06 08:05:28;;;;;;;15.10;6.88;;;;;;;14.10;100.00;101966.91;5015230;28;20723;-76
2023/10/06 08:07:58;;;;;;;19.40;6.90;;;;;;;14.09;100.00;101959.84;5040503;28;20068;-77
2023/10/06 08:10:29;;;;;;;19.02;7.70;;;;;;;14.09;100.00;101962.50;5060552;28;20504;-77
2023/10/06 08:13:01;;;;;;;13.40;7.68;;;;;;;14.08;100.00;101963.38;5048920;28;20052;-76
2023/10/06 08:15:32;;;;;;;12.90;7.90;;;;;;;14.09;100.00;101970.47;5041849;28;20047;-77
2023/10/06 08:18:00;;;;;;;18.60;8.20;;;;;;;14.10;100.00;101969.56;5046608;28;20508;-77
2023/10/06 08:20:29;;;;;;;12.70;7.70;;;;;;;14.11;100.00;101974.88;4996778;28;20059;-76
2023/10/06 08:22:58;;;;;;;20.05;9.23;;;;;;;14.13;100.00;101969.59;5052423;28;20494;-77
2023/10/06 08:25:25;;;;;;;18.10;8.30;;;;;;;14.13;100.00;101953.69;5041964;28;20911;-77
2023/10/06 08:27:54;;;;;;;23.90;9.38;;;;;;;14.15;100.00;101959.88;5051372;28;20044;-77
2023/10/06 08:30:22;;;;;;;12.52;8.95;;;;;;;14.17;100.00;101961.66;5049544;28;20040;-78
2023/10/06 08:32:53;;;;;;;11.90;8.35;;;;;;;14.18;100.00;101955.50;4994923;28;20048;-77
2023/10/06 08:35:22;;;;;;;20.23;9.00;;;;;;;14.21;100.00;101957.25;5007199;28;20047;-76
2023/10/06 08:37:56;;;;;;;18.73;8.85;;;;;;;14.22;100.00;101956.41;5060589;28;20417;-77
2023/10/06 08:40:24;;;;;;;20.45;8.35;;;;;;;14.24;100.00;101952.00;5062114;28;20051;-77
2023/10/06 08:42:53;;;;;;;19.42;8.60;;;;;;;14.26;100.00;101952.00;5016001;28;20717;-77
2023/10/06 08:45:27;;;;;;;21.33;9.35;;;;;;;14.28;100.00;101947.59;5042669;28;20033;-76
2023/10/06 08:47:59;;;;;;;16.65;7.85;;;;;;;14.29;100.00;101937.00;5047482;28;20048;-76
2023/10/06 08:50:32;;;;;;;22.55;8.75;;;;;;;14.32;100.00;101931.69;5057619;28;20040;-76
2023/10/06 08:53:04;;;;;;;19.48;8.35;;;;;;;14.36;100.00;101944.09;5021482;28;20063;-76
2023/10/06 08:55:33;;;;;;;21.25;8.82;;;;;;;14.38;100.00;101944.97;5050039;28;20041;-76
2023/10/06 08:58:00;;;;;;;22.48;9.70;;;;;;;14.39;100.00;101932.63;5018346;28;20060;-76
2023/10/06 09:00:35;;;;;;;16.83;8.85;;;;;;;14.44;100.00;101938.81;5030671;28;20069;-76
2023/10/06 09:03:09;;;;;;;18.90;9.32;;;;;;;14.50;100.00;101943.25;5051681;28;20032;-76
2023/10/06 09:05:39;;;;;;;16.38;7.85;;;;;;;14.54;100.00;101943.31;5053969;28;20491;-76
2023/10/06 09:08:17;;;;;;;15.77;8.00;;;;;;;14.58;100.00;101961.03;5024285;28;20056;-76
2023/10/06 09:10:49;;;;;;;17.13;7.65;;;;;;;14.61;100.00;101966.38;5054431;28;20052;-76
2023/10/06 09:13:19;;;;;;;14.70;7.40;;;;;;;14.64;100.00;101952.22;5049464;28;20044;-76
2023/10/06 09:16:07;;;;;;;18.60;8.25;;;;;;;14.66;100.00;101953.09;5048787;28;20044;-76
2023/10/06 09:18:35;;;;;;;17.90;7.57;;;;;;;14.68;100.00;101948.69;5030249;28;20044;-76
2023/10/06 09:21:21;;;;;;;16.52;6.93;;;;;;;14.74;100.00;101939.88;5041576;28;20044;-76
2023/10/06 09:23:49;;;;;;;15.95;7.13;;;;;;;14.77;100.00;101947.84;5016452;28;20057;-76
2023/10/06 09:26:29;;;;;;;16.40;7.47;;;;;;;14.84;100.00;101946.06;5045636;28;20044;-76
2023/10/06 09:29:01;;;;;;;12.77;7.20;;;;;;;14.89;100.00;101931.94;5055391;28;20479;-76
2023/10/06 09:31:35;;;;;;;11.18;7.30;;;;;;;14.96;100.00;101936.38;5037912;28;20064;-76
2023/10/06 09:34:07;;;;;;;12.93;6.88;;;;;;;15.04;100.00;101924.91;5029863;28;20043;-76
2023/10/06 09:36:36;;;;;;;15.45;7.07;;;;;;;15.11;100.00;101934.66;5058378;28;20702;-76
2023/10/06 09:39:15;;;;;;;17.23;6.80;;;;;;;15.20;100.00;101940.88;5015758;28;20432;-76
2023/10/06 09:41:42;;;;;;;21.92;6.90;;;;;;;15.29;100.00;101939.09;5060666;28;20465;-77
2023/10/06 09:44:11;;;;;;;16.23;6.68;;;;;;;15.37;100.00;101942.66;5062614;28;20470;-76
2023/10/06 09:46:44;;;;;;;20.77;6.82;;;;;;;15.45;100.00;101947.97;5041929;28;20052;-76
2023/10/06 09:49:15;;;;;;;19.50;7.40;;;;;;;15.52;100.00;101941.75;5049472;28;20040;-76
2023/10/06 09:51:45;;;;;;;13.05;6.43;;;;;;;15.62;100.00;101934.69;5029600;28;20052;-76
2023/10/06 09:54:14;;;;;;;16.55;6.82;;;;;;;15.72;100.00;101937.34;5014179;28;20052;-76
2023/10/06 09:56:42;;;;;;;12.07;6.10;;;;;;;15.83;100.00;101942.69;5062737;28;20044;-77
2023/10/06 09:59:13;;;;;;;12.82;6.28;;;;;;;15.90;100.00;101936.47;5064084;28;20679;-77
2023/10/06 10:01:47;;;;;;;10.52;5.25;;;;;;;15.97;100.00;101940.91;5034421;28;20063;-77
2023/10/06 10:04:16;;;;;;;12.27;4.63;;;;;;;16.03;100.00;101934.69;5062991;28;20059;-77
2023/10/06 10:06:44;;;;;;;15.23;6.22;;;;;;;16.08;100.00;101934.66;5038927;28;20134;-77
2023/10/06 10:09:16;;;;;;;12.45;4.82;;;;;;;16.13;100.00;101914.28;5004482;28;20413;-76
2023/10/06 10:12:07;;;;;;;10.60;4.65;;;;;;;16.21;100.00;101928.41;5064367;28;20070;-77
2023/10/06 10:15:16;;;;;;;12.73;4.95;;;;;;;16.32;100.00;101923.06;5057734;28;20048;-77
2023/10/06 10:18:04;;;;;;;10.65;4.70;;;;;;;16.41;100.00;101916.81;5042560;28;20052;-77
2023/10/06 10:20:34;;;;;;;17.77;5.40;;;;;;;16.48;100.00;101913.25;5042986;28;20062;-77
2023/10/06 10:23:01;;;;;;;18.33;4.35;;;;;;;16.55;100.00;101909.66;4999166;28;20056;-77
2023/10/06 10:25:30;;;;;;;17.33;4.80;;;;;;;16.62;100.00;101918.53;4998755;28;20122;-77
2023/10/06 10:28:27;;;;;;;12.05;3.72;;;;;;;16.69;100.00;101909.59;5049351;28;20517;-77
2023/10/06 10:31:01;;;;;;;13.35;4.75;;;;;;;16.79;100.00;101900.69;5041397;28;20048;-77
2023/10/06 10:33:37;;;;;;;18.15;3.90;;;;;;;16.88;100.00;101902.41;5034213;28;20048;-81
2023/10/06 10:36:20;;;;;;;12.13;4.60;;;;;;;16.95;100.00;101907.69;5049292;28;20120;-80
2023/10/06 10:39:01;;;;;;;13.65;3.95;;;;;;;17.06;100.00;101914.75;5045943;28;20059;-78
2023/10/06 10:41:35;;;;;;;12.15;3.83;;;;;;;17.15;100.00;101907.56;5010292;28;20537;-78
2023/10/06 10:44:08;;;;;;;10.27;3.10;;;;;;;17.19;100.00;101908.44;5057657;28;20490;-78
2023/10/06 10:46:53;;;;;;;9.93;3.15;;;;;;;17.24;100.00;101908.38;5063010;28;20031;-78
2023/10/06 10:49:22;;;;;;;12.60;3.73;;;;;;;17.26;100.00;101898.63;5015047;28;20052;-77
2023/10/06 10:51:57;;;;;;;15.47;4.10;;;;;;;17.22;100.00;101908.44;5053656;28;20055;-77
2023/10/06 10:54:31;;;;;;;12.60;3.63;;;;;;;17.25;100.00;101904.84;5014372;28;20045;-78
2023/10/06 10:57:13;;;;;;;10.30;3.40;;;;;;;17.26;100.00;101890.66;5055190;28;20032;-78
2023/10/06 11:02:49;;;;;;;11.75;3.35;;;;;;;17.40;100.00;101872.75;5055456;28;20056;-78
2023/10/06 11:05:19;;;;;;;13.20;4.50;;;;;;;17.47;100.00;101869.13;5040919;28;20126;-78
2023/10/06 11:07:54;;;;;;;8.73;3.85;;;;;;;17.52;100.00;101869.97;5053855;28;20067;-78
2023/10/06 11:10:26;;;;;;;15.90;4.43;;;;;;;17.58;100.00;101871.69;5018791;28;20044;-78
2023/10/06 11:13:18;;;;;;;10.77;3.40;;;;;;;17.62;100.00;101872.56;5034012;28;20052;-78
2023/10/06 11:15:48;;;;;;;11.88;4.40;;;;;;;17.71;100.00;101872.44;5045109;28;20041;-78
2023/10/06 11:18:22;;;;;;;11.80;4.43;;;;;;;17.85;100.00;101869.69;5024867;28;20052;-78
2023/10/06 11:20:49;;;;;;;20.35;5.10;;;;;;;17.98;100.00;101863.31;5033315;28;20397;-78
2023/10/06 11:23:17;;;;;;;9.80;3.42;;;;;;;18.05;100.00;101866.78;5071043;28;20044;-78
2023/10/06 11:25:49;;;;;;;11.52;3.10;;;;;;;18.12;100.00;101868.47;4991955;28;20486;-79
2023/10/06 11:28:19;;;;;;;21.38;3.72;;;;;;;18.18;100.00;101865.72;5013161;28;20597;-78
2023/10/06 11:30:47;;;;;;;7.90;2.77;;;;;;;18.14;100.00;101866.66;5050442;28;20044;-78
2023/10/06 11:33:18;;;;;;;12.52;3.50;;;;;;;18.08;100.00;101858.75;5052776;28;20509;-79
2023/10/06 11:35:46;;;;;;;10.02;2.90;;;;;;;18.02;100.00;101866.84;5048449;28;20048;-81
2023/10/06 11:38:15;;;;;;;18.95;3.72;;;;;;;17.98;100.00;101860.66;5029286;28;20052;-80
2023/10/06 11:40:44;;;;;;;11.93;3.00;;;;;;;18.00;100.00;101869.50;5063234;28;20481;-81
2023/10/06 11:43:13;;;;;;;13.43;3.05;;;;;;;17.98;100.00;101863.31;5009879;28;20048;-80
2023/10/06 11:45:42;;;;;;;14.77;3.47;;;;;;;17.98;100.00;101871.31;5017627;28;20509;-80